Terminal Aerodrome Forecast
Issued by NWS Atlanta, GA

Home | Current Version | Previous Version | Text Only | Print | Product List | Glossary On
Versions: 1 2 3 4 5 6 7 8 9 10 11 12 13 14 15 16 17 18 19 20 21 22 23 24 25 26 27 28 29 30 31 32 33 34 35 36 37 38 39 40 41 42 43 44 45 46 47 48 49 50
000
FTUS42 KFFC 031123
TAFATL
TAF
KATL 031123Z 0312/0418 09007KT 5SM -RADZ OVC005
      TEMPO 0312/0316 2SM RA BR OVC003
     FM031600 10007KT 6SM BR OVC007
     FM032100 10007KT P6SM OVC012
     FM040500 13006KT P6SM OVC004
     FM041000 20006KT P6SM OVC007
     FM041500 22010KT P6SM VCSH BKN012=

USA.gov is the U.S. government's official web portal to all federal, state and local government web resources and services.